Time;durP1;ratioP1;P1;durP2;ratioP2;P2;SDS_P1;SDS_P2;PMS_P1;PMS_P2;Temp;Humidity;BMP_temperature;BMP_pressure;BME280_temperature;BME280_humidity;BME280_pressure;Samples;Min_cycle;Max_cycle;Signal;HPM_P1;HPM_P2
2022/07/10 04:17:49;;;;;;;5.85;1.40;;;;;;;13.48;72.99;101575.22;6216014;22;20290;-73
2022/07/10 04:20:52;;;;;;;7.10;1.13;;;;;;;13.70;73.99;101580.28;6212709;23;20023;-73
2022/07/10 04:23:56;;;;;;;5.35;1.92;;;;;;;13.44;75.78;101574.50;6211439;23;20027;-73
2022/07/10 04:26:59;;;;;;;5.75;1.73;;;;;;;13.61;75.59;101578.13;6213502;23;20066;-73
2022/07/10 04:30:04;;;;;;;6.72;1.70;;;;;;;13.58;76.08;101589.63;6211765;23;20047;-73
2022/07/10 04:33:08;;;;;;;6.13;1.52;;;;;;;13.35;77.13;101589.88;6213509;23;20031;-73
2022/07/10 04:36:11;;;;;;;6.32;1.45;;;;;;;13.58;76.76;101576.47;6212908;23;20401;-73
2022/07/10 04:39:17;;;;;;;7.25;1.67;;;;;;;13.54;76.89;101582.81;6180410;23;20101;-73
2022/07/10 04:42:20;;;;;;;6.13;1.50;;;;;;;13.41;77.42;101576.44;6182331;23;20089;-73
2022/07/10 04:45:24;;;;;;;3.97;1.55;;;;;;;13.32;78.20;101579.50;6183237;23;20078;-73
2022/07/10 04:48:28;;;;;;;5.68;0.90;;;;;;;13.57;77.20;101572.16;6182249;23;20031;-73
2022/07/10 04:51:31;;;;;;;4.60;1.08;;;;;;;13.81;75.23;101574.50;6164845;23;20028;-73
2022/07/10 04:54:35;;;;;;;5.65;1.23;;;;;;;13.65;75.87;101575.25;6184254;23;20035;-73
2022/07/10 04:57:39;;;;;;;6.18;1.75;;;;;;;13.78;74.81;101587.81;6184816;23;20348;-73
2022/07/10 05:00:42;;;;;;;4.88;1.20;;;;;;;13.90;74.46;101584.56;6184725;23;20387;-73
2022/07/10 05:03:46;;;;;;;4.65;0.80;;;;;;;13.79;75.16;101582.47;6183488;23;20478;-74
2022/07/10 05:06:49;;;;;;;4.03;1.40;;;;;;;13.54;75.01;101600.34;6183693;23;20055;-73
2022/07/10 05:09:52;;;;;;;5.30;1.00;;;;;;;13.80;75.01;101596.47;6183813;23;20034;-74
2022/07/10 05:12:55;;;;;;;5.65;1.10;;;;;;;14.08;73.91;101604.72;6166286;23;20027;-74
2022/07/10 05:15:59;;;;;;;7.32;1.25;;;;;;;14.11;74.07;101601.94;6184246;23;20097;-73
2022/07/10 05:19:02;;;;;;;7.07;1.42;;;;;;;13.81;73.59;101596.38;6176566;23;20043;-73
2022/07/10 05:22:05;;;;;;;4.13;1.08;;;;;;;14.06;72.47;101601.28;6159072;23;20031;-73
2022/07/10 05:25:09;;;;;;;6.32;1.33;;;;;;;14.29;70.00;101599.28;6177321;23;20407;-73
2022/07/10 05:28:14;;;;;;;7.47;1.88;;;;;;;14.49;70.04;101601.78;6176556;23;20027;-73
2022/07/10 05:31:17;;;;;;;5.65;1.40;;;;;;;14.62;69.54;101596.75;6176134;23;20344;-73
2022/07/10 05:34:21;;;;;;;4.97;0.95;;;;;;;14.68;68.18;101609.59;6176762;23;20066;-73
2022/07/10 05:37:24;;;;;;;5.05;0.93;;;;;;;14.31;68.66;101602.69;6177143;23;20340;-73
2022/07/10 05:40:28;;;;;;;5.18;1.40;;;;;;;14.14;69.43;101607.03;6177218;23;20154;-73
2022/07/10 05:43:31;;;;;;;8.43;1.70;;;;;;;14.06;69.27;101614.44;6175761;23;20024;-73
2022/07/10 05:46:34;;;;;;;;;;;;;;;14.07;68.86;101600.38;6175295;23;20032;-73
2022/07/10 05:49:38;;;;;;;5.90;1.35;;;;;;;13.94;70.43;101599.25;6174925;23;19915;-73
2022/07/10 05:52:41;;;;;;;8.95;1.55;;;;;;;13.92;69.69;101601.13;6177474;23;20435;-73
2022/07/10 05:55:48;;;;;;;6.90;0.93;;;;;;;14.21;68.57;101602.31;6177347;23;20020;-73
2022/07/10 05:58:51;;;;;;;4.85;1.30;;;;;;;14.06;69.31;101601.28;6177228;23;20031;-73
2022/07/10 06:01:54;;;;;;;5.78;1.33;;;;;;;14.33;69.22;101601.69;6175738;23;20343;-73
2022/07/10 06:05:01;;;;;;;4.88;1.45;;;;;;;14.29;69.29;101607.19;6176781;23;20028;-72
2022/07/10 06:08:05;;;;;;;5.75;1.35;;;;;;;14.37;67.31;101597.13;6176837;23;20028;-72
2022/07/10 06:11:08;;;;;;;10.27;1.30;;;;;;;14.31;67.97;101607.97;6176833;23;20043;-73
2022/07/10 06:14:14;;;;;;;8.07;1.13;;;;;;;14.42;68.08;101600.34;6177746;23;20383;-73
2022/07/10 06:17:18;;;;;;;6.43;1.33;;;;;;;14.60;67.67;101604.72;6175893;23;20028;-73
2022/07/10 06:20:21;;;;;;;8.85;1.27;;;;;;;14.79;67.10;101603.75;6175104;23;20074;-73
2022/07/10 06:23:25;;;;;;;7.20;1.48;;;;;;;14.87;66.83;101598.94;6176642;23;20347;-73
2022/07/10 06:26:28;;;;;;;5.25;1.58;;;;;;;14.99;65.50;101600.91;6176948;23;20066;-73
2022/07/10 06:29:31;;;;;;;4.05;0.88;;;;;;;14.59;66.82;101603.03;6175348;23;20105;-73
2022/07/10 06:32:35;;;;;;;6.20;1.35;;;;;;;14.67;66.98;101601.75;6175177;23;20146;-74
2022/07/10 06:35:39;;;;;;;9.63;1.50;;;;;;;14.71;65.74;101603.28;6175704;23;20024;-73
2022/07/10 06:38:43;;;;;;;6.85;1.10;;;;;;;14.51;67.26;101597.28;6176873;23;20028;-73
2022/07/10 06:41:46;;;;;;;6.45;1.45;;;;;;;14.63;66.41;101604.56;6174865;23;20116;-73
2022/07/10 06:44:50;;;;;;;6.78;1.30;;;;;;;14.93;66.66;101595.97;6175931;23;20108;-73
2022/07/10 06:47:58;;;;;;;10.10;1.20;;;;;;;15.00;65.87;101593.88;6158405;23;20352;-74
2022/07/10 06:51:05;;;;;;;7.32;1.10;;;;;;;15.41;64.76;101596.00;6176714;23;20024;-74
2022/07/10 06:54:08;;;;;;;8.98;2.25;;;;;;;14.97;65.31;101597.53;6176671;23;20040;-73
2022/07/10 06:57:12;;;;;;;9.57;1.38;;;;;;;15.12;64.08;101595.81;6174046;23;20020;-73
2022/07/10 07:00:16;;;;;;;8.00;2.00;;;;;;;14.45;64.91;101600.19;6173020;23;20082;-72
2022/07/10 07:03:26;;;;;;;7.05;1.25;;;;;;;14.67;65.34;101604.41;6172498;23;20567;-73
2022/07/10 07:06:33;;;;;;;7.80;1.17;;;;;;;14.81;64.99;101600.13;6173776;23;20477;-73
2022/07/10 07:09:37;;;;;;;5.13;1.10;;;;;;;14.83;64.29;101592.13;6174363;23;20024;-73
2022/07/10 07:12:40;;;;;;;7.65;1.00;;;;;;;14.94;64.57;101592.41;6175425;23;20028;-73
2022/07/10 07:15:54;;;;;;;7.45;1.35;;;;;;;14.96;63.81;101595.81;6176329;23;20066;-74
2022/07/10 07:18:58;;;;;;;10.38;3.00;;;;;;;14.91;64.16;101597.00;6175813;23;20382;-73
2022/07/10 07:25:23;;;;;;;8.70;1.55;;;;;;;15.08;64.24;101595.13;6176512;23;20032;-73
2022/07/10 07:28:26;;;;;;;5.35;1.10;;;;;;;15.27;63.94;101599.41;6175838;23;20078;-74
2022/07/10 07:31:29;;;;;;;6.18;1.23;;;;;;;15.15;64.07;101607.97;6176578;23;20024;-73
2022/07/10 07:46:46;;;;;;;7.45;1.23;;;;;;;15.57;61.93;101592.47;5040295;28;20391;-75
2022/07/10 07:49:50;;;;;;;7.07;1.30;;;;;;;15.65;62.42;101593.81;5042354;28;20048;-74
2022/07/10 07:52:54;;;;;;;4.95;1.20;;;;;;;15.87;61.43;101586.41;5041852;28;20125;-74
2022/07/10 07:55:58;;;;;;;8.10;1.42;;;;;;;15.37;62.29;101597.97;5030177;28;20049;-73
2022/07/10 07:59:01;;;;;;;7.07;1.40;;;;;;;15.08;63.36;101595.13;5023448;28;20493;-74
2022/07/10 08:02:06;;;;;;;9.32;2.35;;;;;;;15.03;63.49;101605.09;5021335;28;20171;-74
2022/07/10 08:05:09;;;;;;;8.27;1.50;;;;;;;15.06;62.70;101599.66;5071071;22;20060;-84
2022/07/10 08:08:13;;;;;;;6.97;1.33;;;;;;;15.42;62.81;101588.03;5062587;28;20714;-76
2022/07/10 08:11:17;;;;;;;5.50;1.25;;;;;;;15.73;62.39;101583.69;5060579;28;20583;-80
2022/07/10 08:14:20;;;;;;;10.30;1.80;;;;;;;15.56;61.86;101588.09;5062051;28;20047;-81
2022/07/10 08:17:25;;;;;;;4.30;0.95;;;;;;;15.75;60.46;101584.47;5062549;28;20094;-80
2022/07/10 08:20:30;;;;;;;5.40;1.27;;;;;;;16.04;60.51;101570.44;5062874;28;20409;-73
2022/07/10 08:23:33;;;;;;;4.45;1.08;;;;;;;15.89;58.66;101578.38;5062943;28;20111;-75
2022/07/10 08:26:37;;;;;;;8.13;1.08;;;;;;;15.92;58.23;101580.84;5065489;28;20082;-75
2022/07/10 08:29:41;;;;;;;5.18;1.02;;;;;;;15.59;58.74;101569.47;5080372;28;20515;-77
2022/07/10 08:32:45;;;;;;;10.25;1.65;;;;;;;15.76;59.71;101579.13;5081453;28;20174;-68
2022/07/10 08:35:49;;;;;;;5.70;1.17;;;;;;;15.88;59.95;101574.06;5082070;28;20050;-71
2022/07/10 08:38:56;;;;;;;11.23;2.28;;;;;;;16.32;59.10;101576.72;5078550;28;20741;-68
2022/07/10 08:42:00;;;;;;;9.40;1.27;;;;;;;16.59;57.48;101568.06;5061714;28;20114;-69
2022/07/10 08:45:05;;;;;;;5.78;1.17;;;;;;;16.58;55.92;101571.66;5061246;28;20528;-68
2022/07/10 08:48:12;;;;;;;6.03;1.17;;;;;;;16.40;56.56;101574.50;5047837;28;20147;-69
2022/07/10 08:51:37;;;;;;;6.30;1.60;;;;;;;16.69;55.90;101563.94;5046623;28;20044;-68
2022/07/10 08:54:44;;;;;;;5.90;1.35;;;;;;;16.32;56.82;101558.25;5047627;28;20091;-67
2022/07/10 08:57:50;;;;;;;9.65;2.13;;;;;;;16.24;56.78;101555.22;5047685;28;20068;-68
2022/07/10 09:00:54;;;;;;;7.60;1.98;;;;;;;16.74;56.38;101552.13;5048351;28;20520;-69
2022/07/10 09:03:58;;;;;;;3.65;0.90;;;;;;;16.90;53.53;101552.06;5046656;28;20112;-70
2022/07/10 09:07:01;;;;;;;5.15;1.20;;;;;;;16.84;53.47;101543.69;5047214;28;20047;-69
2022/07/10 09:10:37;;;;;;;9.13;1.73;;;;;;;16.85;52.31;101551.53;5035796;28;20047;-68
2022/07/10 09:13:52;;;;;;;6.15;1.45;;;;;;;16.62;52.47;101552.88;5047629;28;20052;-69
2022/07/10 09:16:55;;;;;;;7.10;1.70;;;;;;;16.56;55.61;101557.69;5048394;28;20055;-68
2022/07/10 09:19:59;;;;;;;5.43;0.88;;;;;;;16.81;54.22;101563.19;5048491;28;20124;-68
2022/07/10 09:23:18;;;;;;;6.40;1.23;;;;;;;16.59;51.89;101565.44;5046352;28;20055;-67
2022/07/10 09:26:22;;;;;;;4.72;1.23;;;;;;;16.38;53.42;101568.44;5048659;28;20075;-68
2022/07/10 09:29:26;;;;;;;4.43;1.02;;;;;;;16.24;54.32;101565.75;5042920;28;20132;-70
2022/07/10 09:32:29;;;;;;;6.13;0.90;;;;;;;16.59;54.83;101546.94;5029470;28;20108;-69
2022/07/10 09:39:24;;;;;;;5.22;1.20;;;;;;;17.09;51.56;101543.00;4969410;28;20105;-67
2022/07/10 09:42:39;;;;;;;8.57;1.30;;;;;;;17.40;52.28;101526.84;4969430;28;20134;-67
2022/07/10 09:45:47;;;;;;;4.57;1.00;;;;;;;17.67;48.93;101533.91;4971005;28;20050;-68
2022/07/10 09:49:10;;;;;;;6.53;0.98;;;;;;;17.50;49.05;101518.31;4949993;29;20058;-68
2022/07/10 09:52:15;;;;;;;6.88;1.75;;;;;;;17.60;49.67;101516.78;4965813;28;20060;-68
2022/07/10 09:55:21;;;;;;;5.45;0.80;;;;;;;17.32;50.01;101518.56;4968618;28;20089;-68
2022/07/10 09:58:31;;;;;;;7.25;1.88;;;;;;;17.47;50.71;101523.81;4967405;28;20088;-68
2022/07/10 10:01:36;;;;;;;10.38;2.60;;;;;;;17.33;52.00;101525.56;4968390;28;20049;-68
2022/07/10 10:04:42;;;;;;;13.00;1.50;;;;;;;17.18;51.57;101526.56;4966869;28;20245;-67
2022/07/10 10:07:46;;;;;;;9.15;1.60;;;;;;;17.23;50.65;101523.59;4968584;28;20041;-67
2022/07/10 10:10:51;;;;;;;5.68;0.98;;;;;;;17.08;51.42;101528.09;4968348;28;20093;-67
2022/07/10 10:13:55;;;;;;;6.20;1.02;;;;;;;17.30;51.17;101523.13;4969135;28;20371;-67
2022/07/10 10:17:00;;;;;;;5.85;0.93;;;;;;;17.49;50.27;101522.78;4969497;28;20479;-67
2022/07/10 10:23:29;;;;;;;3.78;1.13;;;;;;;17.74;50.39;101518.50;4968083;28;20046;-68
2022/07/10 10:26:33;;;;;;;7.07;1.17;;;;;;;18.03;49.87;101521.88;4967691;28;20049;-63
2022/07/10 10:29:38;;;;;;;4.00;0.80;;;;;;;18.24;49.28;101528.34;4968395;28;20077;-71
2022/07/10 10:32:42;;;;;;;8.40;1.30;;;;;;;18.04;49.74;101520.91;4968532;28;20523;-63
2022/07/10 10:35:49;;;;;;;5.18;0.75;;;;;;;18.11;50.03;101511.59;4948450;29;20101;-64
2022/07/10 10:38:58;;;;;;;4.28;0.95;;;;;;;17.91;49.04;101509.47;4948578;29;20227;-67
2022/07/10 10:42:02;;;;;;;6.38;0.98;;;;;;;17.96;49.92;101515.28;4948778;29;20687;-71
2022/07/10 10:45:27;;;;;;;4.53;1.10;;;;;;;18.18;48.74;101512.03;4946490;29;20170;-67
2022/07/10 10:48:30;;;;;;;3.20;0.70;;;;;;;18.11;49.14;101504.50;4956270;28;20476;-67
2022/07/10 10:51:59;;;;;;;5.97;1.02;;;;;;;18.09;49.84;101497.63;4967952;28;20489;-68
2022/07/10 10:55:11;;;;;;;5.18;1.30;;;;;;;18.18;48.92;101493.50;4967094;28;20053;-67
2022/07/10 10:58:18;;;;;;;4.05;1.00;;;;;;;18.44;50.73;101507.56;4967561;28;20293;-67
2022/07/10 11:01:21;;;;;;;7.25;0.98;;;;;;;18.32;49.50;101507.50;4967072;28;20081;-68
2022/07/10 11:04:25;;;;;;;7.47;1.20;;;;;;;18.08;50.52;101509.16;4947893;28;20041;-68
2022/07/10 11:08:03;;;;;;;7.45;0.90;;;;;;;18.16;50.87;101513.97;4948840;28;20149;-68
2022/07/10 11:11:31;;;;;;;2.83;0.75;;;;;;;18.75;49.72;101498.34;4949282;28;20409;-68
2022/07/10 11:14:37;;;;;;;4.93;1.15;;;;;;;18.95;49.44;101497.78;4948600;28;20054;-68
2022/07/10 11:17:41;;;;;;;3.67;1.02;;;;;;;18.04;50.40;101505.03;4957157;28;20149;-68
2022/07/10 11:20:54;;;;;;;5.85;0.93;;;;;;;18.51;49.91;101496.47;4947788;29;20049;-68
2022/07/10 11:24:15;;;;;;;4.70;1.25;;;;;;;18.39;50.86;101512.38;4952621;28;20049;-67
2022/07/10 11:27:30;;;;;;;5.85;1.40;;;;;;;18.34;51.06;101508.22;4966560;28;20100;-70
2022/07/10 11:30:52;;;;;;;5.50;1.05;;;;;;;18.71;50.73;101495.03;4966877;28;20049;-68
2022/07/10 11:33:56;;;;;;;3.85;0.85;;;;;;;18.95;49.44;101503.09;4947875;29;20073;-69
2022/07/10 11:37:00;;;;;;;5.55;1.23;;;;;;;18.62;49.83;101506.28;4947891;29;20105;-69
2022/07/10 11:40:11;;;;;;;4.65;1.17;;;;;;;18.94;50.16;101495.22;4947479;29;20106;-69
2022/07/10 11:43:16;;;;;;;5.43;1.52;;;;;;;19.05;51.09;101493.50;4947385;29;20185;-69
2022/07/10 11:46:23;;;;;;;3.90;0.90;;;;;;;18.80;50.53;101491.78;4957377;28;20324;-69
2022/07/10 11:49:27;;;;;;;4.75;1.05;;;;;;;19.16;50.97;101505.97;4967246;28;20118;-69
2022/07/10 11:52:35;;;;;;;4.88;1.25;;;;;;;18.99;50.83;101504.56;4965457;28;20112;-70
2022/07/10 11:55:42;;;;;;;4.95;1.10;;;;;;;18.92;51.73;101502.44;4966232;28;20050;-70
2022/07/10 11:59:06;;;;;;;6.43;1.25;;;;;;;18.55;51.58;101510.34;4966531;28;20085;-69
2022/07/10 12:02:10;;;;;;;4.22;1.00;;;;;;;18.83;51.25;101497.81;4966693;28;20053;-69
2022/07/10 12:05:40;;;;;;;8.75;1.50;;;;;;;18.25;52.87;101508.88;4965805;28;20507;-69
2022/07/10 12:08:47;;;;;;;3.95;1.02;;;;;;;18.80;52.91;101491.78;4966216;28;20061;-69
2022/07/10 12:12:06;;;;;;;3.40;1.20;;;;;;;18.98;51.47;101502.84;4963289;28;20085;-69
2022/07/10 12:15:09;;;;;;;4.43;0.68;;;;;;;19.11;52.13;101497.50;4946993;28;20421;-69
2022/07/10 12:18:19;;;;;;;6.80;1.92;;;;;;;18.69;51.95;101504.91;4946978;28;20069;-68
2022/07/10 12:21:23;;;;;;;4.57;1.02;;;;;;;19.31;51.44;101508.47;4947923;28;20050;-67
2022/07/10 12:24:27;;;;;;;2.63;0.80;;;;;;;18.80;51.28;101493.59;4950283;28;20042;-68
2022/07/10 12:27:40;;;;;;;3.67;1.15;;;;;;;19.15;51.17;101504.28;4950689;28;20109;-69
2022/07/10 12:30:49;;;;;;;2.47;0.50;;;;;;;19.29;51.35;101487.34;4950573;29;20058;-68
2022/07/10 12:34:02;;;;;;;3.92;0.73;;;;;;;18.91;52.30;101491.00;4950691;29;20062;-68
2022/07/10 12:37:10;;;;;;;3.10;0.90;;;;;;;19.31;52.29;101488.09;4950096;29;20086;-68
2022/07/10 12:40:30;;;;;;;1.73;0.50;;;;;;;19.46;51.24;101502.00;4950277;29;20078;-69
2022/07/10 12:43:34;;;;;;;4.55;0.65;;;;;;;19.76;49.91;101498.09;4959298;28;20731;-68
2022/07/10 12:46:38;;;;;;;2.95;0.52;;;;;;;19.21;51.85;101503.84;4969226;28;20065;-69
2022/07/10 12:50:03;;;;;;;2.40;0.60;;;;;;;18.99;52.86;101507.22;4969362;28;20050;-68
2022/07/10 12:53:14;;;;;;;2.58;0.50;;;;;;;19.27;51.46;101514.00;4970326;28;20074;-69
2022/07/10 12:56:33;;;;;;;2.25;0.77;;;;;;;19.23;52.38;101523.13;4969789;28;20105;-68
2022/07/10 12:59:38;;;;;;;2.90;0.65;;;;;;;19.02;53.65;101522.88;4970120;28;20046;-69
2022/07/10 13:02:41;;;;;;;2.67;0.50;;;;;;;18.93;53.12;101526.19;4969076;28;20077;-68
2022/07/10 13:05:45;;;;;;;6.70;0.70;;;;;;;18.81;54.38;101517.31;4969569;28;20542;-68
2022/07/10 13:08:50;;;;;;;1.95;0.50;;;;;;;19.02;52.54;101516.75;4969243;28;20424;-69
2022/07/10 13:11:54;;;;;;;1.98;0.55;;;;;;;19.10;52.93;101513.53;4961755;28;20150;-68
2022/07/10 13:14:58;;;;;;;1.63;0.50;;;;;;;19.63;51.60;101508.75;4950196;28;20058;-68
2022/07/10 13:18:02;;;;;;;2.75;0.63;;;;;;;19.54;51.84;101504.97;4949817;28;20057;-68
2022/07/10 13:21:05;;;;;;;2.85;0.50;;;;;;;19.84;50.84;101503.63;4949539;28;20062;-69
2022/07/10 13:24:09;;;;;;;4.50;1.50;;;;;;;20.00;49.80;101498.00;4951640;28;20046;-69
2022/07/10 13:27:14;;;;;;;3.88;0.60;;;;;;;20.06;50.65;101514.31;4966219;28;20057;-68
2022/07/10 13:30:18;;;;;;;4.18;0.70;;;;;;;19.57;50.73;101502.06;4969851;28;20054;-68
2022/07/10 13:33:23;;;;;;;2.85;0.60;;;;;;;19.59;50.83;101507.25;4967822;28;20050;-68
2022/07/10 13:36:27;;;;;;;2.60;0.60;;;;;;;19.21;51.98;101519.75;4968001;28;20158;-68
2022/07/10 13:39:31;;;;;;;3.58;0.80;;;;;;;20.16;50.82;101509.97;4970066;28;20593;-68
2022/07/10 13:42:35;;;;;;;3.20;0.70;;;;;;;19.35;52.13;101520.53;4950810;29;20162;-69
2022/07/10 13:45:45;;;;;;;4.28;0.82;;;;;;;18.99;53.82;101514.31;4950495;29;20049;-69
2022/07/10 13:48:49;;;;;;;2.92;0.65;;;;;;;19.25;53.02;101520.38;4950565;29;20101;-69
2022/07/10 13:51:52;;;;;;;5.45;1.00;;;;;;;19.73;52.83;101521.22;4950041;29;20046;-69
2022/07/10 14:06:47;;;;;;;3.92;1.10;;;;;;;19.76;51.88;101514.84;5186725;27;20378;-67
2022/07/10 14:09:51;;;;;;;3.75;1.27;;;;;;;20.90;50.17;101518.38;5165267;27;20102;-67
2022/07/10 14:12:56;;;;;;;4.80;1.25;;;;;;;20.80;50.70;101508.59;5165834;27;20045;-68
2022/07/10 14:16:02;;;;;;;2.10;0.90;;;;;;;20.08;51.90;101517.69;5170543;27;20037;-67
2022/07/10 14:19:05;;;;;;;2.60;0.70;;;;;;;19.41;52.91;101517.44;5174803;27;20082;-67
2022/07/10 14:22:09;;;;;;;4.07;1.20;;;;;;;19.42;54.40;101513.81;5175328;27;20505;-68
2022/07/10 14:25:13;;;;;;;3.22;1.55;;;;;;;18.89;54.65;101518.56;5165769;27;20079;-67
2022/07/10 14:28:16;;;;;;;5.32;1.50;;;;;;;19.04;55.41;101518.31;5165866;27;20421;-67
2022/07/10 14:31:20;;;;;;;3.80;1.90;;;;;;;21.10;49.87;101514.09;5165605;27;20137;-67
2022/07/10 14:34:24;;;;;;;5.88;1.92;;;;;;;20.61;50.18;101518.03;5164825;27;20045;-68
2022/07/10 14:37:27;;;;;;;5.18;1.80;;;;;;;21.08;49.25;101521.34;5181164;27;20501;-67
2022/07/10 14:40:31;;;;;;;3.28;1.60;;;;;;;20.55;50.52;101512.34;5185123;27;20081;-68
2022/07/10 14:43:34;;;;;;;5.78;1.88;;;;;;;21.17;49.99;101514.44;5185433;27;20040;-66
2022/07/10 14:46:38;;;;;;;5.80;1.98;;;;;;;19.21;54.87;101519.75;5185739;27;20041;-68
2022/07/10 14:49:48;;;;;;;4.50;2.30;;;;;;;18.83;56.03;101511.91;5186309;27;20052;-68
2022/07/10 14:52:52;;;;;;;10.00;2.40;;;;;;;18.29;57.58;101520.09;5165369;27;20049;-69
2022/07/10 14:55:55;;;;;;;4.05;2.10;;;;;;;18.05;58.54;101517.31;5162670;27;20049;-69
2022/07/10 14:58:59;;;;;;;4.10;2.00;;;;;;;18.06;58.75;101525.16;5143570;27;20045;-69
2022/07/10 15:02:03;;;;;;;3.15;1.98;;;;;;;17.77;59.26;101516.53;5143496;27;20424;-69
2022/07/10 15:05:07;;;;;;;4.40;2.08;;;;;;;17.76;59.99;101530.66;5151800;27;20114;-70
2022/07/10 15:08:11;;;;;;;3.58;2.40;;;;;;;17.41;61.13;101523.25;5151416;27;20046;-70
2022/07/10 15:11:14;;;;;;;3.65;2.15;;;;;;;17.56;61.50;101521.41;5151356;27;20053;-68
2022/07/10 15:14:21;;;;;;;4.40;2.17;;;;;;;18.06;60.22;101516.34;5150094;27;20034;-68
2022/07/10 15:17:25;;;;;;;5.07;2.47;;;;;;;18.18;60.07;101518.16;5150879;27;20288;-68
2022/07/10 15:20:29;;;;;;;4.18;2.40;;;;;;;17.85;60.80;101511.56;5149813;27;20054;-69
2022/07/10 15:23:32;;;;;;;4.40;1.90;;;;;;;17.70;60.69;101512.56;5149680;27;20457;-70
2022/07/10 15:26:35;;;;;;;4.18;1.95;;;;;;;17.59;61.07;101517.72;5150872;27;20046;-69
2022/07/10 15:29:42;;;;;;;5.32;2.33;;;;;;;17.72;61.19;101504.53;5150946;27;20046;-69
2022/07/10 15:32:46;;;;;;;4.93;2.17;;;;;;;18.25;59.60;101497.41;5150543;27;20049;-69
2022/07/10 15:35:49;;;;;;;3.63;1.92;;;;;;;18.49;58.87;101500.16;5142606;27;20045;-70
2022/07/10 15:38:52;;;;;;;5.93;3.58;;;;;;;18.80;57.43;101494.44;5116950;27;20054;-70
2022/07/10 15:42:00;;;;;;;6.70;2.20;;;;;;;18.24;59.41;101491.28;5129200;27;20074;-69
2022/07/10 15:45:05;;;;;;;6.53;1.95;;;;;;;18.24;59.90;101493.91;5129008;27;20038;-70
2022/07/10 15:48:14;;;;;;;4.13;1.83;;;;;;;18.07;60.41;101497.75;5140028;27;20098;-70
2022/07/10 15:51:19;;;;;;;4.35;2.03;;;;;;;17.74;61.30;101495.56;5129304;27;20066;-69
2022/07/10 15:54:23;;;;;;;5.13;1.85;;;;;;;17.74;61.89;101487.63;5119471;27;20033;-69
2022/07/10 15:57:26;;;;;;;3.20;1.70;;;;;;;17.71;62.34;101487.81;5131028;27;20173;-69
2022/07/10 16:00:30;;;;;;;4.97;1.75;;;;;;;17.69;62.29;101484.44;5130593;27;20045;-70
2022/07/10 16:03:34;;;;;;;4.30;1.70;;;;;;;17.54;62.86;101493.38;5149266;27;20034;-69
2022/07/10 16:06:37;;;;;;;3.55;1.67;;;;;;;17.57;62.92;101490.53;5151214;27;20557;-69
2022/07/10 16:09:40;;;;;;;3.20;1.50;;;;;;;17.62;63.09;101494.56;5138860;27;20057;-69
2022/07/10 16:12:44;;;;;;;10.65;2.33;;;;;;;17.62;63.65;101499.00;5151930;27;20505;-68
2022/07/10 16:15:48;;;;;;;4.53;1.45;;;;;;;17.48;63.87;101499.91;5151302;27;20474;-69
2022/07/10 16:18:53;;;;;;;4.07;1.33;;;;;;;17.43;64.57;101488.81;5150176;27;20050;-68
2022/07/10 16:21:56;;;;;;;2.75;1.00;;;;;;;17.39;64.99;101493.44;5151304;27;20045;-70
2022/07/10 16:28:24;;;;;;;4.55;1.00;;;;;;;17.06;67.62;101501.75;5153109;27;20041;-69
2022/07/10 16:31:33;;;;;;;3.75;1.35;;;;;;;16.79;69.52;101499.06;5151847;27;20041;-68
2022/07/10 16:34:41;;;;;;;3.90;1.05;;;;;;;16.52;71.09;101485.75;5152455;27;20067;-68
2022/07/10 16:37:49;;;;;;;3.47;1.20;;;;;;;17.29;69.18;101476.47;5152706;27;20091;-69
2022/07/10 16:40:53;;;;;;;4.18;1.00;;;;;;;17.41;67.75;101480.13;5149065;27;20049;-69
2022/07/10 16:43:56;;;;;;;2.20;1.00;;;;;;;17.00;68.78;101472.22;5151943;27;20073;-68
2022/07/10 16:47:00;;;;;;;3.20;0.85;;;;;;;17.48;67.23;101473.47;5151341;27;20118;-68
2022/07/10 16:50:04;;;;;;;2.35;0.80;;;;;;;17.33;67.64;101469.22;5138558;27;20046;-69
2022/07/10 16:53:07;;;;;;;1.92;0.93;;;;;;;17.52;66.91;101467.03;5151185;27;20041;-68
2022/07/10 16:56:11;;;;;;;2.85;0.90;;;;;;;17.39;67.56;101463.53;5151756;27;20041;-69
2022/07/10 16:59:14;;;;;;;4.75;1.08;;;;;;;17.23;67.71;101462.81;5151365;27;20057;-69
2022/07/10 17:02:25;;;;;;;3.65;1.55;;;;;;;17.53;67.00;101458.16;5151273;27;20048;-69
2022/07/10 17:05:34;;;;;;;4.20;1.00;;;;;;;17.66;66.68;101463.47;5151515;27;20080;-69
2022/07/10 17:08:38;;;;;;;7.65;1.48;;;;;;;17.73;66.20;101459.44;5151697;27;20095;-69
2022/07/10 17:11:41;;;;;;;2.42;1.30;;;;;;;17.49;66.35;101446.09;5151564;27;20407;-69
2022/07/10 17:15:03;;;;;;;4.68;1.42;;;;;;;17.36;66.93;101456.63;5151603;27;20099;-69
2022/07/10 17:18:09;;;;;;;4.70;1.20;;;;;;;17.47;66.66;101465.66;5151444;27;20118;-69
2022/07/10 17:21:16;;;;;;;2.85;1.00;;;;;;;17.69;66.23;101459.78;5150746;27;20095;-68
2022/07/10 17:24:20;;;;;;;5.65;1.48;;;;;;;17.61;66.47;101455.84;5150560;27;20045;-70
2022/07/10 17:27:24;;;;;;;8.88;1.70;;;;;;;17.64;66.12;101454.78;5150815;27;20075;-69
2022/07/10 17:30:28;;;;;;;2.65;1.23;;;;;;;17.57;66.24;101448.22;5129971;27;20077;-69
2022/07/10 17:33:34;;;;;;;10.15;1.40;;;;;;;17.75;65.30;101454.91;5129806;27;20168;-69
2022/07/10 17:36:37;;;;;;;3.65;1.10;;;;;;;17.80;65.32;101450.19;5129871;27;20457;-69
2022/07/10 17:39:43;;;;;;;3.45;1.15;;;;;;;17.63;65.72;101453.09;5129631;27;20411;-70
2022/07/10 17:42:48;;;;;;;3.90;1.10;;;;;;;17.62;65.59;101446.13;5138775;27;20045;-70
2022/07/10 17:45:52;;;;;;;6.57;1.88;;;;;;;17.69;65.66;101447.41;5148759;27;20069;-68
2022/07/10 17:48:57;;;;;;;3.28;1.10;;;;;;;17.76;64.89;101443.38;5149534;27;20053;-68
2022/07/10 17:52:01;;;;;;;4.70;1.30;;;;;;;17.44;65.87;101442.91;5149640;27;20049;-70
2022/07/10 17:55:05;;;;;;;4.97;1.45;;;;;;;17.68;65.46;101440.41;5148080;27;20041;-69
2022/07/10 17:58:09;;;;;;;2.85;1.10;;;;;;;17.75;65.25;101439.03;5148935;27;20524;-69
2022/07/10 18:01:12;;;;;;;4.22;1.00;;;;;;;17.66;65.37;101437.03;5149894;27;20053;-69
2022/07/10 18:04:16;;;;;;;1.80;0.90;;;;;;;17.69;65.28;101442.09;5149391;27;20045;-69
2022/07/10 18:07:19;;;;;;;8.00;1.25;;;;;;;17.46;65.88;101442.81;5150195;27;20081;-69
2022/07/10 18:10:23;;;;;;;4.38;1.58;;;;;;;17.73;65.23;101440.94;5150332;27;20126;-69
2022/07/10 18:13:26;;;;;;;4.28;1.20;;;;;;;17.39;66.38;101443.22;5150574;27;20049;-69
2022/07/10 18:16:29;;;;;;;6.80;1.38;;;;;;;17.54;65.99;101437.84;5149815;27;20070;-69
2022/07/10 18:19:33;;;;;;;6.03;1.40;;;;;;;17.47;66.03;101447.13;5129198;27;20149;-70
2022/07/10 18:22:36;;;;;;;5.15;1.02;;;;;;;17.41;66.33;101449.22;5128913;27;20099;-69
2022/07/10 18:25:41;;;;;;;3.08;1.00;;;;;;;17.57;65.83;101443.75;5136032;27;20548;-69
2022/07/10 18:28:44;;;;;;;4.90;1.00;;;;;;;17.44;66.27;101443.75;5150288;27;20045;-68
2022/07/10 18:31:49;;;;;;;6.20;1.30;;;;;;;17.65;65.82;101440.63;5150059;27;20103;-69
2022/07/10 18:34:55;;;;;;;3.08;1.27;;;;;;;17.82;65.55;101443.00;5149042;27;20558;-69
2022/07/10 18:37:58;;;;;;;5.15;1.50;;;;;;;17.73;65.63;101438.28;5149681;27;20095;-69
2022/07/10 18:41:02;;;;;;;3.60;1.45;;;;;;;17.78;66.26;101436.22;5149367;27;20531;-69
2022/07/10 18:44:06;;;;;;;3.15;1.20;;;;;;;17.84;65.34;101442.91;5153742;27;20083;-69
2022/07/10 18:47:13;;;;;;;4.90;1.60;;;;;;;17.88;65.74;101442.56;5153284;27;20131;-70
2022/07/10 18:50:17;;;;;;;4.82;1.40;;;;;;;17.81;66.33;101445.75;5153902;27;20414;-69
2022/07/10 18:53:22;;;;;;;5.30;1.10;;;;;;;17.75;65.77;101436.41;5154052;27;20077;-69
2022/07/10 18:56:26;;;;;;;4.35;1.38;;;;;;;17.82;66.09;101444.78;5152925;27;20070;-69
2022/07/10 18:59:30;;;;;;;5.40;1.05;;;;;;;17.83;66.35;101443.84;5153589;27;20103;-69
2022/07/10 19:02:33;;;;;;;4.72;1.17;;;;;;;17.77;67.12;101433.66;5153030;27;20037;-70
2022/07/10 19:05:38;;;;;;;5.38;1.13;;;;;;;17.66;66.67;101444.97;5152572;27;20095;-72
2022/07/10 19:08:42;;;;;;;4.97;1.52;;;;;;;17.72;66.75;101447.19;5153205;27;20048;-70
2022/07/10 19:11:45;;;;;;;3.42;1.08;;;;;;;17.76;67.23;101437.25;5153880;27;20042;-69
2022/07/10 19:14:48;;;;;;;3.50;1.17;;;;;;;17.79;67.04;101440.56;5153526;27;20688;-69
2022/07/10 19:17:52;;;;;;;4.55;1.17;;;;;;;17.72;68.32;101435.78;5152743;27;20091;-68